Time;durP1;ratioP1;P1;durP2;ratioP2;P2;SDS_P1;SDS_P2;PMS_P1;PMS_P2;Temp;Humidity;BMP_temperature;BMP_pressure;BME280_temperature;BME280_humidity;BME280_pressure;Samples;Min_cycle;Max_cycle;Signal;HPM_P1;HPM_P2
2022/12/07 00:01:27;;;;;;;7.95;2.10;;;3.30;99.90;;;;;;5095610;28;20082;-72
2022/12/07 00:03:57;;;;;;;18.27;3.35;;;3.20;99.90;;;;;;5085764;28;20385;-72
2022/12/07 00:06:22;;;;;;;10.85;2.60;;;3.10;99.90;;;;;;5105140;28;20498;-72
2022/12/07 00:08:48;;;;;;;10.35;2.35;;;3.00;99.90;;;;;;5100986;28;20331;-72
2022/12/07 00:11:17;;;;;;;12.60;3.20;;;3.00;99.90;;;;;;5065204;28;20051;-72
2022/12/07 00:13:43;;;;;;;13.30;2.60;;;2.90;99.90;;;;;;5101852;27;20405;-72
2022/12/07 00:16:13;;;;;;;7.70;2.08;;;2.90;99.90;;;;;;5076443;28;20051;-74
2022/12/07 00:18:39;;;;;;;11.77;2.60;;;3.00;99.90;;;;;;5109859;27;20031;-72
2022/12/07 00:21:14;;;;;;;7.80;2.10;;;3.00;99.90;;;;;;5103254;28;20043;-71
2022/12/07 00:23:42;;;;;;;14.93;2.75;;;3.10;99.90;;;;;;5096553;28;20048;-72
2022/12/07 00:26:11;;;;;;;16.17;3.53;;;3.10;99.90;;;;;;5102639;27;20807;-72
2022/12/07 00:28:37;;;;;;;11.18;2.53;;;3.20;99.90;;;;;;5084151;28;20044;-72
2022/12/07 00:31:08;;;;;;;12.38;2.75;;;3.20;99.90;;;;;;5063263;28;20076;-72
2022/12/07 00:33:34;;;;;;;11.25;2.67;;;3.20;99.90;;;;;;5094738;28;20052;-80
2022/12/07 00:36:01;;;;;;;10.73;2.83;;;3.20;99.90;;;;;;5088798;28;20047;-78
2022/12/07 00:38:32;;;;;;;12.70;2.72;;;3.20;99.90;;;;;;5096721;28;20395;-78
2022/12/07 00:41:00;;;;;;;12.85;2.42;;;3.20;99.90;;;;;;5093963;28;20119;-78
2022/12/07 00:43:26;;;;;;;12.20;2.67;;;3.10;99.90;;;;;;5103894;27;20126;-79
2022/12/07 00:45:53;;;;;;;11.82;2.00;;;3.10;99.90;;;;;;5107379;27;20043;-78
2022/12/07 00:48:19;;;;;;;13.07;2.78;;;3.10;99.90;;;;;;5085981;28;20256;-78
2022/12/07 00:50:44;;;;;;;12.23;2.85;;;3.10;99.90;;;;;;5097706;28;20355;-79
2022/12/07 00:53:10;;;;;;;15.40;2.95;;;3.10;99.90;;;;;;5086666;28;20101;-79
2022/12/07 00:55:36;;;;;;;11.47;2.73;;;3.10;99.90;;;;;;5098040;27;20081;-79
2022/12/07 00:58:03;;;;;;;10.65;3.10;;;3.10;99.90;;;;;;5075186;28;20042;-79
2022/12/07 01:00:34;;;;;;;9.50;2.72;;;3.10;99.90;;;;;;5102382;28;20047;-79
2022/12/07 01:03:00;;;;;;;13.67;2.77;;;3.10;99.90;;;;;;5082647;28;20039;-79
2022/12/07 01:05:26;;;;;;;14.68;3.42;;;3.10;99.90;;;;;;5080598;28;20044;-79
2022/12/07 01:07:51;;;;;;;15.40;3.60;;;3.10;99.90;;;;;;5086622;28;20040;-79
2022/12/07 01:10:17;;;;;;;14.80;2.42;;;3.10;99.90;;;;;;5096245;28;20040;-79
2022/12/07 01:12:43;;;;;;;11.13;3.20;;;3.10;99.90;;;;;;5051170;28;20063;-79
2022/12/07 01:15:09;;;;;;;12.98;3.70;;;3.10;99.90;;;;;;5060644;28;20050;-79
2022/12/07 01:17:35;;;;;;;12.93;3.15;;;3.10;99.90;;;;;;5064280;28;20071;-79
2022/12/07 01:20:01;;;;;;;12.07;2.60;;;3.10;99.90;;;;;;5044301;28;20513;-79
2022/12/07 01:22:27;;;;;;;10.68;2.80;;;3.00;99.90;;;;;;5080305;28;20078;-72
2022/12/07 01:24:53;;;;;;;13.13;2.75;;;3.00;99.90;;;;;;5067441;28;20122;-73
2022/12/07 01:27:19;;;;;;;12.98;2.60;;;3.10;99.90;;;;;;5081572;28;20039;-72
2022/12/07 01:29:44;;;;;;;13.13;2.78;;;3.10;99.90;;;;;;5076829;28;20039;-72
2022/12/07 01:32:11;;;;;;;14.65;3.05;;;3.10;99.90;;;;;;5072463;28;20044;-72
2022/12/07 01:34:36;;;;;;;11.07;2.80;;;3.10;99.90;;;;;;5102320;28;20116;-73
2022/12/07 01:37:02;;;;;;;10.80;2.50;;;3.10;99.90;;;;;;5080075;28;20648;-72
2022/12/07 01:39:32;;;;;;;10.05;2.58;;;3.10;99.90;;;;;;5079795;28;20104;-72
2022/12/07 01:41:57;;;;;;;11.95;2.33;;;3.20;99.90;;;;;;5097760;28;20040;-72
2022/12/07 01:44:24;;;;;;;10.75;2.33;;;3.20;99.90;;;;;;5099894;28;20045;-72
2022/12/07 01:46:53;;;;;;;14.68;2.42;;;3.10;99.90;;;;;;5094909;28;20047;-72
2022/12/07 01:49:34;;;;;;;11.10;2.25;;;3.20;99.90;;;;;;5097429;28;20465;-73
2022/12/07 01:52:26;;;;;;;11.82;2.47;;;3.20;99.90;;;;;;5081585;28;20513;-72
2022/12/07 01:54:57;;;;;;;11.25;2.35;;;3.30;99.90;;;;;;5076894;27;20051;-73
2022/12/07 01:57:23;;;;;;;11.45;2.35;;;3.30;99.90;;;;;;5085319;27;20044;-72
2022/12/07 01:59:51;;;;;;;13.13;2.20;;;3.30;99.90;;;;;;5080214;28;20468;-73
2022/12/07 02:02:22;;;;;;;8.45;2.15;;;3.30;99.90;;;;;;5096244;28;20044;-73
2022/12/07 02:04:50;;;;;;;11.40;1.75;;;3.30;99.90;;;;;;5100038;28;20100;-73
2022/12/07 02:07:20;;;;;;;11.05;2.33;;;3.40;99.90;;;;;;5101129;28;20055;-73
2022/12/07 02:09:46;;;;;;;10.15;1.85;;;3.50;99.90;;;;;;5084920;28;20036;-72
2022/12/07 02:12:12;;;;;;;12.10;1.77;;;3.50;99.90;;;;;;5096669;28;20065;-73
2022/12/07 02:14:38;;;;;;;14.73;2.38;;;3.40;99.90;;;;;;5081463;28;20478;-73
2022/12/07 02:17:31;;;;;;;11.20;2.00;;;3.40;99.90;;;;;;5077198;28;20040;-79
2022/12/07 02:20:08;;;;;;;10.18;2.05;;;3.40;99.90;;;;;;5096682;27;20040;-79
2022/12/07 02:22:46;;;;;;;8.35;1.77;;;3.40;99.90;;;;;;5078944;28;20330;-79
2022/12/07 02:25:28;;;;;;;10.63;1.70;;;3.30;99.90;;;;;;5099834;28;20251;-79
2022/12/07 02:28:12;;;;;;;11.05;1.70;;;3.30;99.90;;;;;;5097437;27;20493;-80
2022/12/07 02:30:46;;;;;;;9.55;2.20;;;3.20;99.90;;;;;;5097271;28;20505;-80
2022/12/07 02:33:24;;;;;;;9.57;1.92;;;3.20;99.90;;;;;;5075152;28;20405;-80
2022/12/07 02:36:06;;;;;;;13.48;1.80;;;3.20;99.90;;;;;;5080601;28;20082;-80
2022/12/07 02:39:06;;;;;;;12.95;1.92;;;3.10;99.90;;;;;;5096895;28;20132;-79
2022/12/07 02:41:43;;;;;;;9.88;2.05;;;3.10;99.90;;;;;;5097555;28;20039;-80
2022/12/07 02:44:20;;;;;;;8.05;1.60;;;3.10;99.90;;;;;;5085139;28;20547;-79
2022/12/07 02:46:55;;;;;;;9.73;1.90;;;3.10;99.90;;;;;;5097666;27;20039;-80
2022/12/07 02:49:27;;;;;;;8.60;1.60;;;3.10;99.90;;;;;;5082712;28;20097;-79
2022/12/07 02:51:53;;;;;;;6.90;1.52;;;3.10;99.90;;;;;;5098961;28;20122;-79
2022/12/07 02:54:20;;;;;;;8.50;1.48;;;3.10;99.90;;;;;;5098808;28;20138;-80
2022/12/07 02:57:01;;;;;;;11.07;1.67;;;3.10;99.90;;;;;;5101271;28;20122;-78
2022/12/07 02:59:48;;;;;;;13.23;2.90;;;3.20;99.90;;;;;;5098276;28;20539;-78
2022/12/07 03:02:47;;;;;;;12.23;2.22;;;3.10;99.90;;;;;;5068901;28;20047;-78
2022/12/07 03:05:13;;;;;;;15.20;2.30;;;3.10;99.90;;;;;;5097485;28;20094;-78
2022/12/07 03:08:10;;;;;;;10.93;2.38;;;3.10;99.90;;;;;;5082385;28;20052;-72
2022/12/07 03:11:19;;;;;;;11.25;1.90;;;3.10;99.90;;;;;;5096959;28;21624;-72
2022/12/07 03:13:52;;;;;;;16.25;2.75;;;3.10;99.90;;;;;;5050444;28;20049;-72
2022/12/07 03:16:28;;;;;;;12.77;2.03;;;3.10;99.90;;;;;;5088116;28;20134;-70
2022/12/07 03:19:01;;;;;;;12.17;2.53;;;3.20;99.90;;;;;;5097521;28;20051;-72
2022/12/07 03:21:33;;;;;;;9.00;2.03;;;3.30;99.90;;;;;;5095386;28;20040;-72
2022/12/07 03:24:04;;;;;;;11.48;1.90;;;3.30;99.90;;;;;;5096334;28;20047;-72
2022/12/07 03:26:41;;;;;;;11.90;2.00;;;3.30;99.90;;;;;;5083092;28;20043;-72
2022/12/07 03:29:40;;;;;;;10.57;1.90;;;3.30;99.90;;;;;;5092450;28;20086;-72
2022/12/07 03:32:15;;;;;;;9.50;1.75;;;3.30;99.90;;;;;;5076535;28;20051;-72
2022/12/07 03:34:47;;;;;;;14.32;2.00;;;3.20;99.90;;;;;;5099157;28;20052;-72
2022/12/07 03:37:23;;;;;;;12.00;2.17;;;3.20;99.90;;;;;;5085000;28;20044;-72
2022/12/07 03:39:57;;;;;;;10.50;1.83;;;3.20;99.90;;;;;;5098511;28;20077;-72
2022/12/07 03:42:23;;;;;;;11.90;1.75;;;3.10;99.90;;;;;;5087648;28;20047;-72
2022/12/07 03:44:49;;;;;;;10.65;1.70;;;3.10;99.90;;;;;;5080506;28;20040;-72
2022/12/07 03:47:21;;;;;;;11.45;1.80;;;3.10;99.90;;;;;;5081704;28;20051;-72
2022/12/07 03:50:21;;;;;;;7.60;1.55;;;3.10;99.90;;;;;;5100916;28;20133;-72
2022/12/07 03:53:08;;;;;;;11.23;2.05;;;3.20;99.90;;;;;;5080268;28;20028;-72
2022/12/07 03:55:39;;;;;;;8.05;1.42;;;3.20;99.90;;;;;;5095946;28;20098;-72
2022/12/07 03:58:13;;;;;;;9.05;1.90;;;3.10;99.90;;;;;;5100907;28;20108;-72
2022/12/07 04:00:42;;;;;;;12.65;1.80;;;3.10;99.90;;;;;;5088981;28;20306;-72
2022/12/07 04:03:08;;;;;;;13.77;2.42;;;3.10;99.90;;;;;;5088307;28;20102;-72
2022/12/07 04:05:34;;;;;;;12.80;2.22;;;3.20;99.90;;;;;;5095357;28;20088;-72
2022/12/07 04:08:00;;;;;;;12.48;1.73;;;3.20;99.90;;;;;;5084833;28;20525;-72
2022/12/07 04:10:25;;;;;;;11.82;1.70;;;3.20;99.90;;;;;;5085633;28;20044;-79
2022/12/07 04:12:51;;;;;;;12.73;1.80;;;3.20;99.90;;;;;;5064349;28;21056;-79
2022/12/07 04:15:17;;;;;;;10.52;1.80;;;3.20;99.90;;;;;;5097090;27;20116;-79
2022/12/07 04:17:43;;;;;;;9.90;1.77;;;3.20;99.90;;;;;;5083520;28;20180;-79
2022/12/07 04:20:09;;;;;;;8.68;1.30;;;3.20;99.90;;;;;;5098972;28;20051;-79
2022/12/07 04:22:35;;;;;;;9.05;1.42;;;3.20;99.90;;;;;;5086010;28;20068;-79
2022/12/07 04:25:02;;;;;;;7.32;1.50;;;3.10;99.90;;;;;;5102285;27;20039;-79
2022/12/07 04:27:27;;;;;;;15.48;2.00;;;3.10;99.90;;;;;;5100332;28;20074;-79
2022/12/07 04:29:54;;;;;;;12.27;1.90;;;3.10;99.90;;;;;;5085146;28;20562;-79
2022/12/07 04:32:20;;;;;;;8.82;1.27;;;3.00;99.90;;;;;;5051127;28;20043;-79
2022/12/07 04:34:46;;;;;;;10.90;1.80;;;3.00;99.90;;;;;;5085239;28;20059;-79
2022/12/07 04:37:12;;;;;;;11.52;1.77;;;3.00;99.90;;;;;;5097990;28;20539;-79
2022/12/07 04:39:37;;;;;;;13.48;2.13;;;3.00;99.90;;;;;;5068643;28;20054;-79
2022/12/07 04:42:04;;;;;;;12.97;1.67;;;3.00;99.90;;;;;;5080191;28;20040;-80
2022/12/07 04:44:30;;;;;;;11.88;1.80;;;3.00;99.90;;;;;;5082900;28;20048;-80
2022/12/07 04:46:56;;;;;;;9.05;1.65;;;3.10;99.90;;;;;;5115316;27;20409;-80
2022/12/07 04:49:23;;;;;;;10.50;1.50;;;3.10;99.90;;;;;;5086688;28;20508;-79
2022/12/07 04:51:51;;;;;;;8.32;1.70;;;3.00;99.90;;;;;;5101338;28;20207;-79
2022/12/07 04:54:17;;;;;;;17.23;2.08;;;3.00;99.90;;;;;;5100556;28;20350;-80
2022/12/07 04:56:43;;;;;;;13.70;1.92;;;3.00;99.90;;;;;;5067704;28;20043;-73
2022/12/07 04:59:14;;;;;;;15.43;1.90;;;2.90;99.90;;;;;;5067028;28;20517;-74
2022/12/07 05:01:40;;;;;;;12.93;2.50;;;2.90;99.90;;;;;;5096877;28;20043;-73
2022/12/07 05:04:09;;;;;;;10.00;1.75;;;2.80;99.90;;;;;;5082962;28;20038;-73
2022/12/07 05:06:35;;;;;;;9.85;1.50;;;2.70;99.90;;;;;;5101581;28;20050;-73
2022/12/07 05:09:02;;;;;;;12.88;1.88;;;2.70;99.90;;;;;;5094065;28;20100;-73
2022/12/07 05:11:40;;;;;;;9.48;1.92;;;2.60;99.90;;;;;;5066986;28;20058;-73
2022/12/07 05:14:24;;;;;;;8.48;1.70;;;2.60;99.90;;;;;;5069803;28;20040;-73
2022/12/07 05:16:53;;;;;;;7.70;1.40;;;2.60;99.90;;;;;;5099980;28;20044;-73
2022/12/07 05:19:19;;;;;;;15.35;2.63;;;2.60;99.90;;;;;;5082849;28;20043;-73
2022/12/07 05:21:46;;;;;;;17.30;2.38;;;2.60;99.90;;;;;;5102188;27;20122;-73
2022/12/07 05:24:13;;;;;;;15.43;2.00;;;2.60;99.90;;;;;;5082705;28;20107;-73
2022/12/07 05:26:40;;;;;;;8.43;1.40;;;2.60;99.90;;;;;;5101364;28;20149;-73
2022/12/07 05:29:07;;;;;;;12.57;1.60;;;2.60;99.90;;;;;;5080217;28;20031;-74
2022/12/07 05:31:33;;;;;;;11.65;2.03;;;2.60;99.90;;;;;;5094142;28;20509;-73
2022/12/07 05:33:59;;;;;;;13.30;2.15;;;2.60;99.90;;;;;;5100662;27;20384;-73
2022/12/07 05:36:25;;;;;;;11.60;2.33;;;2.60;99.90;;;;;;5063215;28;20443;-74
2022/12/07 05:38:51;;;;;;;9.93;1.67;;;2.60;99.90;;;;;;5084228;28;20043;-74
2022/12/07 05:44:03;;;;;;;10.70;1.77;;;2.50;99.90;;;;;;5101392;27;20079;-73
2022/12/07 05:46:32;;;;;;;12.32;1.95;;;2.50;99.90;;;;;;5095271;28;20054;-73
2022/12/07 05:49:02;;;;;;;9.65;1.38;;;2.50;99.90;;;;;;5083369;28;20125;-73
2022/12/07 05:51:28;;;;;;;9.93;1.55;;;2.40;99.90;;;;;;5101329;27;20062;-73
2022/12/07 05:53:54;;;;;;;9.07;1.70;;;2.40;99.90;;;;;;5096896;28;20681;-74
2022/12/07 05:56:20;;;;;;;11.73;1.80;;;2.30;99.90;;;;;;5100040;28;20039;-73
2022/12/07 06:01:30;;;;;;;13.47;1.80;;;2.30;99.90;;;;;;5080760;28;20044;-73
2022/12/07 06:03:56;;;;;;;11.73;2.00;;;2.20;99.90;;;;;;5078944;28;20490;-73
2022/12/07 06:06:21;;;;;;;8.17;1.77;;;2.30;99.90;;;;;;5079622;28;20367;-73
2022/12/07 06:08:47;;;;;;;15.98;2.00;;;2.20;99.90;;;;;;5049621;28;20032;-74
2022/12/07 06:13:57;;;;;;;10.43;1.83;;;2.30;99.90;;;;;;5098126;28;20524;-79
2022/12/07 06:16:23;;;;;;;14.27;2.33;;;2.20;99.90;;;;;;5064634;28;20047;-79
2022/12/07 06:18:49;;;;;;;10.83;1.63;;;2.30;99.90;;;;;;5077563;28;20044;-79
2022/12/07 06:21:15;;;;;;;12.00;1.57;;;2.30;99.90;;;;;;5093162;28;20047;-79
2022/12/07 06:23:40;;;;;;;11.33;1.70;;;2.40;99.90;;;;;;5061662;28;20039;-79
2022/12/07 06:26:06;;;;;;;10.63;1.97;;;2.40;99.90;;;;;;5098877;27;20031;-79
2022/12/07 06:28:32;;;;;;;13.43;2.13;;;2.40;99.90;;;;;;5080232;28;20047;-79
2022/12/07 06:30:59;;;;;;;12.87;1.90;;;2.50;99.90;;;;;;5095414;28;20034;-80
2022/12/07 06:33:26;;;;;;;12.27;1.97;;;2.50;99.90;;;;;;5050404;28;20043;-80
2022/12/07 06:35:51;;;;;;;14.70;1.83;;;2.60;99.90;;;;;;5096821;28;20047;-79
2022/12/07 06:38:17;;;;;;;13.27;2.38;;;2.60;99.90;;;;;;5111119;27;20035;-79
2022/12/07 06:40:43;;;;;;;11.77;1.97;;;2.60;99.90;;;;;;5066982;28;20043;-79
2022/12/07 06:43:09;;;;;;;10.63;1.92;;;2.70;99.90;;;;;;5079945;28;20051;-79
2022/12/07 06:45:35;;;;;;;11.20;2.20;;;2.60;99.90;;;;;;5095536;28;20039;-79
2022/12/07 06:48:01;;;;;;;14.10;1.60;;;2.70;99.90;;;;;;5063016;28;20095;-80
2022/12/07 06:50:30;;;;;;;12.30;1.80;;;2.70;99.90;;;;;;5095044;28;20512;-79
2022/12/07 06:52:55;;;;;;;12.70;4.40;;;2.70;99.90;;;;;;5086541;28;20047;-80
2022/12/07 06:55:21;;;;;;;11.73;3.10;;;2.70;99.90;;;;;;5076219;28;20040;-79
2022/12/07 06:57:47;;;;;;;14.37;2.13;;;2.70;99.90;;;;;;5083053;28;20601;-81
2022/12/07 07:00:13;;;;;;;9.80;1.87;;;2.80;99.90;;;;;;5061319;28;20044;-82
2022/12/07 07:02:39;;;;;;;14.97;2.30;;;2.80;99.90;;;;;;5079750;28;20043;-81
2022/12/07 07:05:05;;;;;;;7.78;1.75;;;2.80;99.90;;;;;;5098141;28;20107;-81
2022/12/07 07:07:31;;;;;;;13.27;1.67;;;2.90;99.90;;;;;;5078901;28;20115;-82
2022/12/07 07:09:57;;;;;;;10.07;2.60;;;2.90;99.90;;;;;;5100836;28;20504;-81
2022/12/07 07:12:23;;;;;;;12.57;1.92;;;2.90;99.90;;;;;;5084522;28;20082;-82
2022/12/07 07:14:48;;;;;;;16.30;2.13;;;3.00;99.90;;;;;;5097130;28;20133;-82
2022/12/07 07:17:14;;;;;;;13.27;2.70;;;3.00;99.90;;;;;;5083296;28;20044;-82
2022/12/07 07:19:40;;;;;;;10.47;2.00;;;3.00;99.90;;;;;;5096821;28;20040;-82
2022/12/07 07:22:06;;;;;;;10.50;1.90;;;3.00;99.90;;;;;;5066390;28;20032;-82
2022/12/07 07:24:31;;;;;;;12.03;1.87;;;3.00;99.90;;;;;;5067821;28;20036;-82
2022/12/07 07:26:57;;;;;;;8.57;1.77;;;2.90;99.90;;;;;;5084200;28;20045;-82
2022/12/07 07:29:23;;;;;;;12.93;2.33;;;2.90;99.90;;;;;;5078584;28;20126;-82
2022/12/07 07:31:52;;;;;;;13.15;2.50;;;2.90;99.90;;;;;;5084476;28;20134;-82
2022/12/07 07:34:18;;;;;;;10.40;1.85;;;2.80;99.90;;;;;;5095355;28;20122;-82
2022/12/07 07:36:44;;;;;;;10.27;2.22;;;2.80;99.90;;;;;;5100980;28;20071;-82
2022/12/07 07:39:12;;;;;;;15.05;2.67;;;2.80;99.90;;;;;;5065747;28;20367;-82
2022/12/07 07:41:38;;;;;;;12.48;3.10;;;2.80;99.90;;;;;;5063378;28;20036;-82
2022/12/07 07:44:04;;;;;;;13.93;2.00;;;2.80;99.90;;;;;;5101975;28;20050;-82
2022/12/07 07:46:31;;;;;;;12.48;2.20;;;2.80;99.90;;;;;;5098869;28;20043;-82
2022/12/07 07:48:56;;;;;;;13.13;2.85;;;2.90;99.90;;;;;;5080513;28;20047;-82
2022/12/07 07:51:22;;;;;;;14.20;2.30;;;2.80;99.90;;;;;;5065286;28;20035;-82
2022/12/07 07:53:48;;;;;;;14.27;2.70;;;2.90;99.90;;;;;;5068510;28;20482;-82
2022/12/07 07:56:13;;;;;;;12.30;2.60;;;2.90;99.90;;;;;;5081478;28;20095;-82
2022/12/07 07:58:40;;;;;;;12.73;2.40;;;3.00;99.90;;;;;;5084506;28;20532;-82
2022/12/07 08:01:06;;;;;;;13.73;2.20;;;3.00;99.90;;;;;;5080184;28;20051;-82
2022/12/07 08:03:32;;;;;;;12.77;2.55;;;3.00;99.90;;;;;;5083997;28;20435;-82
2022/12/07 08:06:04;;;;;;;10.65;2.30;;;2.90;99.90;;;;;;5099776;28;20192;-82
2022/12/07 08:08:30;;;;;;;10.43;2.47;;;2.90;99.90;;;;;;5095411;28;20059;-82
2022/12/07 08:11:00;;;;;;;15.50;2.28;;;2.90;99.90;;;;;;5081767;28;20044;-82
2022/12/07 08:13:26;;;;;;;9.43;2.00;;;2.90;99.90;;;;;;5100675;28;20101;-82
2022/12/07 08:15:51;;;;;;;8.73;2.22;;;2.90;99.90;;;;;;5081294;28;20039;-82
2022/12/07 08:18:17;;;;;;;10.37;1.80;;;3.00;99.90;;;;;;5083890;28;20501;-82
2022/12/07 08:20:44;;;;;;;14.48;2.42;;;2.90;99.90;;;;;;5083101;28;20046;-82
2022/12/07 08:23:10;;;;;;;11.03;2.40;;;2.90;99.90;;;;;;5077494;28;20054;-82
2022/12/07 08:25:37;;;;;;;12.68;2.50;;;2.80;99.90;;;;;;5102273;28;20501;-82
2022/12/07 08:28:03;;;;;;;14.48;3.40;;;2.80;99.90;;;;;;5075651;28;20517;-82
2022/12/07 08:30:32;;;;;;;12.15;2.70;;;2.80;99.90;;;;;;5069533;28;20553;-82
2022/12/07 08:32:58;;;;;;;7.53;1.70;;;2.80;99.90;;;;;;5078990;28;20040;-82
2022/12/07 08:35:27;;;;;;;11.75;2.08;;;2.70;99.90;;;;;;5067510;28;20611;-82
2022/12/07 08:37:52;;;;;;;12.48;2.63;;;2.70;99.90;;;;;;5079821;28;20130;-82
2022/12/07 08:40:18;;;;;;;10.65;2.40;;;2.70;99.90;;;;;;5080149;28;20502;-82
2022/12/07 08:42:51;;;;;;;11.07;2.15;;;2.80;99.90;;;;;;5079167;28;20509;-82
2022/12/07 08:45:19;;;;;;;11.27;2.42;;;2.90;99.90;;;;;;5095225;28;20101;-81
2022/12/07 08:48:10;;;;;;;13.43;2.20;;;3.00;99.90;;;;;;5096501;28;20051;-81
2022/12/07 08:50:37;;;;;;;12.68;2.60;;;3.10;99.90;;;;;;5112739;27;20486;-81
2022/12/07 08:53:05;;;;;;;8.88;2.08;;;3.10;99.90;;;;;;5080268;28;20039;-81
2022/12/07 08:55:31;;;;;;;17.40;3.28;;;3.10;99.90;;;;;;5101980;28;20044;-81
2022/12/07 08:58:02;;;;;;;10.45;2.40;;;3.10;99.90;;;;;;5100700;28;20043;-80
2022/12/07 09:00:27;;;;;;;14.93;3.80;;;3.10;99.90;;;;;;5069138;28;20478;-80
2022/12/07 09:02:54;;;;;;;12.50;2.97;;;3.10;99.90;;;;;;5096327;27;20108;-79
2022/12/07 09:05:20;;;;;;;11.27;2.63;;;3.00;99.90;;;;;;5099996;28;20306;-79
2022/12/07 09:07:50;;;;;;;11.70;2.42;;;3.00;99.90;;;;;;5100423;28;20051;-82
2022/12/07 09:10:16;;;;;;;14.68;2.47;;;3.00;99.90;;;;;;5097744;28;20162;-83
2022/12/07 09:12:42;;;;;;;11.93;2.55;;;3.00;99.90;;;;;;5080117;28;20051;-82
2022/12/07 09:15:08;;;;;;;13.73;3.17;;;3.00;99.90;;;;;;5078376;28;20430;-81
2022/12/07 09:17:35;;;;;;;17.13;3.08;;;2.90;99.90;;;;;;5098703;28;20520;-84
2022/12/07 09:20:02;;;;;;;17.73;3.25;;;2.90;99.90;;;;;;5100878;28;20036;-82
2022/12/07 09:22:31;;;;;;;11.57;2.38;;;3.00;99.90;;;;;;5083169;28;20040;-82
2022/12/07 09:25:00;;;;;;;14.75;3.00;;;3.00;99.90;;;;;;5101426;28;20067;-82
2022/12/07 09:27:26;;;;;;;11.70;3.40;;;3.00;99.90;;;;;;5084275;28;20034;-82
2022/12/07 09:29:52;;;;;;;11.45;3.08;;;3.10;99.90;;;;;;5075059;28;20034;-82
2022/12/07 09:32:18;;;;;;;10.15;2.90;;;3.20;99.90;;;;;;5067654;28;20050;-83
2022/12/07 09:34:44;;;;;;;12.45;2.72;;;3.30;99.90;;;;;;5079444;28;20390;-82
2022/12/07 09:37:10;;;;;;;10.25;3.15;;;3.40;99.90;;;;;;5095286;28;20393;-82
2022/12/07 09:39:40;;;;;;;9.45;2.50;;;3.50;99.90;;;;;;5097633;28;20690;-83
2022/12/07 09:42:07;;;;;;;12.40;2.88;;;3.70;99.90;;;;;;5093562;28;20043;-82
2022/12/07 09:44:34;;;;;;;12.00;3.15;;;3.80;99.90;;;;;;5097886;28;20284;-82
2022/12/07 09:47:01;;;;;;;10.10;3.20;;;3.80;99.90;;;;;;5096344;28;20039;-82
2022/12/07 09:49:30;;;;;;;11.80;2.60;;;3.90;99.90;;;;;;5114659;27;20063;-82
2022/12/07 09:52:07;;;;;;;15.25;3.10;;;3.90;99.90;;;;;;5114536;27;20048;-82
2022/12/07 09:54:41;;;;;;;16.92;3.47;;;4.00;99.90;;;;;;5100594;28;20048;-82
2022/12/07 09:57:13;;;;;;;13.93;2.92;;;4.00;99.90;;;;;;5081174;28;20055;-82
2022/12/07 09:59:42;;;;;;;17.65;2.75;;;4.10;99.90;;;;;;5081784;28;20047;-81
2022/12/07 10:02:27;;;;;;;15.23;3.30;;;4.10;99.90;;;;;;5066920;28;20169;-73
2022/12/07 10:04:53;;;;;;;14.18;2.60;;;4.10;99.90;;;;;;5096886;28;20482;-74
2022/12/07 10:07:19;;;;;;;11.23;2.58;;;4.10;99.90;;;;;;5079324;28;20035;-74
2022/12/07 10:09:45;;;;;;;10.80;2.83;;;4.10;99.90;;;;;;5084861;28;20082;-82
2022/12/07 10:12:12;;;;;;;10.38;2.75;;;4.10;99.90;;;;;;5077089;28;20746;-82
2022/12/07 10:15:08;;;;;;;10.65;2.30;;;4.20;99.90;;;;;;5082790;28;20528;-82
2022/12/07 10:17:47;;;;;;;9.93;2.42;;;4.20;99.90;;;;;;5088535;28;20040;-82
2022/12/07 10:20:16;;;;;;;11.73;2.85;;;4.20;99.90;;;;;;5095121;28;20054;-82
2022/12/07 10:22:55;;;;;;;12.68;2.17;;;4.20;99.90;;;;;;5098100;28;20079;-80
2022/12/07 10:25:22;;;;;;;9.02;2.10;;;4.20;99.90;;;;;;5081190;28;20713;-80
2022/12/07 10:28:08;;;;;;;11.82;2.00;;;4.30;99.90;;;;;;5064045;28;20453;-80
2022/12/07 10:30:57;;;;;;;9.32;2.00;;;4.20;99.90;;;;;;5096823;27;20055;-80
2022/12/07 10:33:30;;;;;;;10.13;2.38;;;4.20;99.90;;;;;;5097740;28;20379;-80
2022/12/07 10:35:56;;;;;;;5.90;2.25;;;4.40;99.90;;;;;;5083337;28;20028;-81
2022/12/07 10:38:25;;;;;;;9.00;2.10;;;4.20;99.90;;;;;;5095955;28;20067;-80
2022/12/07 10:41:06;;;;;;;9.75;2.35;;;4.40;99.90;;;;;;5062350;28;20043;-80
2022/12/07 10:43:32;;;;;;;9.57;2.03;;;4.50;99.90;;;;;;5083260;28;20039;-80
2022/12/07 10:46:10;;;;;;;8.63;2.10;;;4.60;99.90;;;;;;5081637;28;20043;-81
2022/12/07 10:48:47;;;;;;;10.18;2.50;;;4.60;99.90;;;;;;5081299;28;20059;-81
2022/12/07 10:51:33;;;;;;;8.50;1.67;;;4.70;99.90;;;;;;5096129;28;20048;-80
2022/12/07 10:54:37;;;;;;;9.77;1.90;;;4.70;99.90;;;;;;5080134;28;20568;-80
2022/12/07 10:57:11;;;;;;;6.90;1.85;;;4.70;99.90;;;;;;5056644;28;20545;-81
2022/12/07 11:00:00;;;;;;;6.65;1.45;;;4.80;99.90;;;;;;5071798;28;20520;-80
2022/12/07 11:02:36;;;;;;;9.30;1.88;;;4.70;99.90;;;;;;5075927;28;20039;-81
2022/12/07 11:05:13;;;;;;;12.57;2.00;;;4.70;99.90;;;;;;5100283;27;20043;-81
2022/12/07 11:08:15;;;;;;;11.13;2.00;;;4.70;99.90;;;;;;5080365;28;20092;-81
2022/12/07 11:10:55;;;;;;;8.20;2.22;;;4.70;99.90;;;;;;5085439;28;20281;-81
2022/12/07 11:14:00;;;;;;;8.43;1.80;;;4.80;99.90;;;;;;5096935;28;20135;-81
2022/12/07 11:16:53;;;;;;;8.82;1.50;;;4.80;99.90;;;;;;5099860;28;20050;-81
2022/12/07 11:19:25;;;;;;;8.95;1.50;;;4.80;99.90;;;;;;5096856;28;20374;-81
2022/12/07 11:22:05;;;;;;;8.93;2.00;;;4.80;99.90;;;;;;5093175;28;20138;-81
2022/12/07 11:24:57;;;;;;;8.23;1.92;;;4.80;99.90;;;;;;5100411;28;20340;-81
2022/12/07 11:27:48;;;;;;;7.32;1.60;;;4.90;99.90;;;;;;5080459;28;20043;-81
2022/12/07 11:30:20;;;;;;;;;;;4.90;99.90;;;;;;5090910;28;20324;-81
2022/12/07 11:32:59;;;;;;;9.35;2.60;;;4.90;99.90;;;;;;5081698;28;20011;-81
2022/12/07 11:35:39;;;;;;;9.80;1.92;;;4.90;99.90;;;;;;5080092;28;20131;-81
2022/12/07 11:38:27;;;;;;;9.10;1.98;;;4.90;99.90;;;;;;5097360;28;20043;-81
2022/12/07 11:41:12;;;;;;;9.52;2.03;;;4.90;99.90;;;;;;5082746;28;20097;-82
2022/12/07 11:43:53;;;;;;;11.15;2.17;;;4.90;99.90;;;;;;5094550;28;20055;-81
2022/12/07 11:46:24;;;;;;;9.10;1.90;;;4.90;99.90;;;;;;5081002;28;20056;-81
2022/12/07 11:49:10;;;;;;;10.77;2.33;;;4.90;99.90;;;;;;5097796;28;20588;-81
2022/12/07 11:51:38;;;;;;;8.27;2.17;;;5.00;99.90;;;;;;5079810;28;20111;-81
2022/12/07 11:54:34;;;;;;;7.93;1.75;;;5.00;99.90;;;;;;5098382;28;20047;-81
2022/12/07 11:57:09;;;;;;;10.30;2.45;;;5.10;99.90;;;;;;5100984;27;20478;-81
2022/12/07 11:59:49;;;;;;;11.27;2.10;;;5.20;99.90;;;;;;5097560;28;20039;-81
2022/12/07 12:02:37;;;;;;;8.32;1.75;;;5.20;99.90;;;;;;5084723;28;20039;-81
2022/12/07 12:05:14;;;;;;;6.85;2.17;;;5.30;99.90;;;;;;5096900;28;20414;-81
2022/12/07 12:07:41;;;;;;;8.27;1.90;;;5.40;99.90;;;;;;5082336;28;20043;-83
2022/12/07 12:10:22;;;;;;;8.43;1.90;;;5.40;99.90;;;;;;5083094;28;20055;-81
2022/12/07 12:13:07;;;;;;;8.95;1.85;;;5.40;99.90;;;;;;5082289;28;20526;-81
2022/12/07 12:15:38;;;;;;;9.95;2.03;;;5.40;99.90;;;;;;5089965;28;20132;-81
2022/12/07 12:18:25;;;;;;;8.38;1.70;;;5.40;99.90;;;;;;5083243;28;20127;-81
2022/12/07 12:20:57;;;;;;;9.13;2.05;;;5.30;99.90;;;;;;5099133;27;20549;-82
2022/12/07 12:23:24;;;;;;;10.15;1.95;;;5.40;99.90;;;;;;5093418;28;20028;-82
2022/12/07 12:25:58;;;;;;;11.65;2.22;;;5.50;99.90;;;;;;5088822;28;20031;-82
2022/12/07 12:28:46;;;;;;;11.20;2.00;;;5.50;99.90;;;;;;5086371;28;20047;-82
2022/12/07 12:31:17;;;;;;;8.55;1.52;;;5.60;99.90;;;;;;5092543;28;20040;-82
2022/12/07 12:34:22;;;;;;;7.95;1.77;;;5.60;99.90;;;;;;5085348;28;20046;-82
2022/12/07 12:36:48;;;;;;;9.18;2.30;;;5.70;99.90;;;;;;5094908;28;20135;-82
2022/12/07 12:39:18;;;;;;;7.95;1.98;;;5.70;99.90;;;;;;5097234;28;20130;-82
2022/12/07 12:44:17;;;;;;;9.20;2.17;;;5.80;99.90;;;;;;5109735;27;20051;-83
2022/12/07 12:47:00;;;;;;;9.80;2.10;;;5.80;99.90;;;;;;5083261;28;20036;-83
2022/12/07 12:49:26;;;;;;;11.48;2.17;;;5.70;99.90;;;;;;5081362;28;20035;-83
2022/12/07 12:52:14;;;;;;;9.07;2.25;;;5.70;99.90;;;;;;5093623;28;20055;-83
2022/12/07 12:55:00;;;;;;;7.18;1.30;;;5.70;99.90;;;;;;5096781;28;20036;-82
2022/12/07 12:57:31;;;;;;;8.55;1.80;;;5.70;99.90;;;;;;5088231;28;20109;-81
2022/12/07 13:00:03;;;;;;;7.30;1.20;;;5.60;99.90;;;;;;5119275;27;20402;-81
2022/12/07 13:02:36;;;;;;;5.57;1.08;;;5.60;99.90;;;;;;5079754;28;20044;-82
2022/12/07 13:05:09;;;;;;;8.00;1.35;;;5.50;99.90;;;;;;5112941;27;20042;-83
2022/12/07 13:07:45;;;;;;;4.03;1.08;;;5.40;99.90;;;;;;5077783;28;20039;-82
2022/12/07 13:10:35;;;;;;;5.80;0.80;;;5.30;99.90;;;;;;5095676;28;20048;-82
2022/12/07 13:13:19;;;;;;;;;;;5.20;99.90;;;;;;5091607;28;20112;-82
2022/12/07 13:16:06;;;;;;;3.55;0.60;;;5.10;99.90;;;;;;5094269;28;19920;-81
2022/12/07 13:18:32;;;;;;;3.78;0.70;;;5.00;99.90;;;;;;5093011;28;20051;-81
2022/12/07 13:21:00;;;;;;;4.00;0.90;;;4.90;99.90;;;;;;5089895;28;20458;-81
2022/12/07 13:23:55;;;;;;;4.22;0.65;;;4.90;99.90;;;;;;5087112;28;20119;-81